Time;durP1;ratioP1;P1;durP2;ratioP2;P2;SDS_P1;SDS_P2;PMS_P1;PMS_P2;Temp;Humidity;BMP_temperature;BMP_pressure;BME280_temperature;BME280_humidity;BME280_pressure;Samples;Min_cycle;Max_cycle;Signal;HPM_P1;HPM_P2
2022/11/08 00:02:39;;;;;;;46.50;27.87;;;10.10;87.80;;;;;;5002838;28;20240;-69
2022/11/08 00:16:09;;;;;;;38.47;26.53;;;9.90;87.80;;;;;;5003740;28;20205;-68
2022/11/08 00:18:36;;;;;;;41.40;27.10;;;9.90;87.80;;;;;;5003785;28;20216;-69
2022/11/08 00:21:03;;;;;;;35.30;23.67;;;9.90;87.80;;;;;;5002643;28;20211;-69
2022/11/08 00:23:30;;;;;;;43.17;26.47;;;9.90;87.80;;;;;;5007499;28;20642;-69
2022/11/08 00:25:57;;;;;;;40.27;26.00;;;9.90;87.80;;;;;;5006068;28;20306;-69
2022/11/08 00:28:24;;;;;;;44.40;26.90;;;9.90;87.90;;;;;;5007427;28;20551;-69
2022/11/08 00:30:51;;;;;;;35.27;24.90;;;9.80;88.00;;;;;;5003113;28;20215;-69
2022/11/08 00:33:18;;;;;;;40.30;25.67;;;9.80;88.10;;;;;;5006066;28;20202;-69
2022/11/08 00:35:45;;;;;;;34.60;24.03;;;9.80;88.10;;;;;;5003149;28;20212;-68
2022/11/08 00:38:12;;;;;;;36.37;25.43;;;9.80;88.20;;;;;;5001661;28;20265;-68
2022/11/08 00:40:39;;;;;;;41.17;25.60;;;9.80;88.20;;;;;;5004537;28;20299;-69
2022/11/08 00:43:06;;;;;;;35.60;23.97;;;9.80;88.20;;;;;;5001249;28;20206;-69
2022/11/08 00:45:33;;;;;;;37.90;25.67;;;9.80;88.20;;;;;;5000733;28;20244;-69
2022/11/08 00:48:00;;;;;;;37.47;24.97;;;9.80;88.20;;;;;;5005238;28;20684;-69
2022/11/08 00:50:27;;;;;;;33.90;24.87;;;9.80;88.20;;;;;;5003015;28;20640;-69
2022/11/08 00:52:54;;;;;;;38.00;24.73;;;9.80;88.20;;;;;;5001991;28;20206;-68
2022/11/08 00:55:21;;;;;;;34.20;22.47;;;9.80;88.20;;;;;;5002817;28;20297;-69
2022/11/08 00:57:48;;;;;;;35.93;24.53;;;9.80;88.20;;;;;;5004606;28;20203;-69
2022/11/08 01:00:30;;;;;;;34.93;23.93;;;9.70;88.20;;;;;;5003524;28;20194;-69
2022/11/08 01:05:43;;;;;;;35.40;23.73;;;9.70;88.20;;;;;;5003046;28;20548;-69
2022/11/08 01:08:11;;;;;;;37.13;23.83;;;9.70;88.20;;;;;;5001092;28;20238;-69
2022/11/08 01:10:42;;;;;;;38.43;24.60;;;9.70;88.30;;;;;;5009599;28;20262;-69
2022/11/08 01:13:10;;;;;;;34.60;23.53;;;9.70;88.40;;;;;;5000754;28;20220;-69
2022/11/08 01:15:39;;;;;;;39.40;23.47;;;9.60;88.30;;;;;;4999870;28;20292;-69
2022/11/08 01:18:08;;;;;;;30.43;23.13;;;9.60;88.30;;;;;;5005751;28;20233;-69
2022/11/08 01:20:43;;;;;;;36.67;23.13;;;9.60;88.30;;;;;;5005374;28;20201;-69
2022/11/08 01:23:11;;;;;;;30.70;22.40;;;9.60;88.30;;;;;;5002868;28;20195;-69
2022/11/08 01:25:40;;;;;;;31.17;22.47;;;9.50;88.30;;;;;;5004840;28;20579;-69
2022/11/08 01:28:08;;;;;;;34.43;23.53;;;9.60;88.50;;;;;;5007830;28;20596;-69
2022/11/08 01:30:37;;;;;;;33.17;23.10;;;9.50;88.40;;;;;;5003881;28;20209;-69
2022/11/08 01:33:04;;;;;;;32.57;22.43;;;9.50;88.50;;;;;;5002314;28;20201;-69
2022/11/08 01:35:33;;;;;;;32.20;21.53;;;9.50;88.60;;;;;;5005438;28;20295;-69
2022/11/08 01:38:00;;;;;;;34.87;22.70;;;9.50;88.60;;;;;;5001277;28;20632;-69
2022/11/08 01:40:28;;;;;;;29.87;22.10;;;9.40;88.40;;;;;;5004121;28;20233;-70
2022/11/08 01:42:55;;;;;;;34.20;22.87;;;9.40;88.40;;;;;;5004111;28;20266;-69
2022/11/08 01:45:59;;;;;;;30.83;22.67;;;9.30;88.30;;;;;;5001864;28;20254;-69
2022/11/08 01:48:28;;;;;;;32.83;22.73;;;9.30;88.50;;;;;;5001008;28;20212;-69
2022/11/08 01:50:58;;;;;;;29.87;21.73;;;9.30;88.40;;;;;;5003437;28;20660;-70
2022/11/08 01:53:27;;;;;;;34.50;23.20;;;9.30;88.50;;;;;;5002804;28;20266;-70
2022/11/08 01:55:55;;;;;;;35.10;23.23;;;9.30;88.60;;;;;;5004018;28;20209;-70
2022/11/08 01:58:26;;;;;;;33.00;22.37;;;9.30;88.60;;;;;;5004155;28;20205;-69
2022/11/08 02:00:53;;;;;;;30.77;22.13;;;9.20;88.50;;;;;;5003915;28;20189;-69
2022/11/08 02:03:21;;;;;;;32.33;23.37;;;9.20;88.60;;;;;;5002743;28;20206;-69
2022/11/08 02:05:48;;;;;;;32.13;20.73;;;9.20;88.60;;;;;;5001396;28;20263;-69
2022/11/08 02:08:27;;;;;;;30.50;22.77;;;9.10;89.20;;;;;;5001779;28;20201;-69
2022/11/08 02:10:55;;;;;;;32.63;22.57;;;9.10;88.70;;;;;;4999853;28;20202;-69
2022/11/08 02:13:25;;;;;;;29.50;20.90;;;9.10;88.70;;;;;;5002837;28;20267;-69
2022/11/08 02:15:52;;;;;;;31.00;20.97;;;9.10;88.80;;;;;;5009238;28;20221;-69
2022/11/08 02:18:21;;;;;;;27.10;20.73;;;9.10;88.80;;;;;;5002930;28;20626;-69
2022/11/08 02:20:48;;;;;;;26.60;19.90;;;9.10;88.80;;;;;;5003829;28;20204;-70
2022/11/08 02:23:28;;;;;;;28.77;19.97;;;9.00;88.80;;;;;;5003782;28;20204;-69
2022/11/08 02:25:55;;;;;;;28.53;19.80;;;9.00;88.60;;;;;;5003827;28;20241;-69
2022/11/08 02:28:22;;;;;;;28.53;18.80;;;9.00;88.50;;;;;;5010941;28;20661;-69
2022/11/08 02:30:49;;;;;;;27.10;19.47;;;9.00;88.50;;;;;;4998332;28;20205;-69
2022/11/08 02:33:19;;;;;;;29.87;19.63;;;9.00;88.50;;;;;;4999292;28;20214;-69
2022/11/08 02:35:50;;;;;;;27.63;18.90;;;8.90;88.60;;;;;;5001896;28;20248;-69
2022/11/08 02:38:18;;;;;;;26.30;19.00;;;8.90;88.80;;;;;;5002412;28;20198;-69
2022/11/08 02:40:54;;;;;;;24.10;17.77;;;8.90;89.00;;;;;;5000628;28;20200;-69
2022/11/08 02:43:22;;;;;;;23.27;17.67;;;8.90;89.10;;;;;;5002457;28;20203;-69
2022/11/08 02:45:49;;;;;;;21.53;16.80;;;8.90;89.10;;;;;;5002816;28;20196;-69
2022/11/08 02:48:18;;;;;;;24.37;16.90;;;8.90;89.20;;;;;;5002335;28;20229;-69
2022/11/08 02:50:46;;;;;;;22.40;16.83;;;8.90;89.30;;;;;;5000256;28;20286;-69
2022/11/08 02:53:13;;;;;;;27.47;18.60;;;8.90;89.40;;;;;;5008176;28;20246;-69
2022/11/08 02:55:40;;;;;;;26.40;17.77;;;8.90;89.50;;;;;;5007281;28;20580;-69
2022/11/08 02:58:08;;;;;;;24.97;17.87;;;8.90;89.50;;;;;;5008891;28;20262;-70
2022/11/08 03:00:34;;;;;;;28.77;18.80;;;8.90;89.50;;;;;;5007208;28;20679;-69
2022/11/08 03:03:02;;;;;;;23.93;18.00;;;8.90;90.10;;;;;;5009422;28;20277;-69
2022/11/08 03:05:29;;;;;;;32.23;18.53;;;8.90;89.80;;;;;;5010328;28;20587;-69
2022/11/08 03:07:57;;;;;;;22.50;17.60;;;9.00;89.90;;;;;;5005112;28;20627;-70
2022/11/08 03:10:25;;;;;;;26.50;18.00;;;9.00;89.90;;;;;;5011370;28;20307;-69
2022/11/08 03:13:01;;;;;;;22.73;15.83;;;9.00;89.80;;;;;;5008240;28;20278;-69
2022/11/08 03:15:29;;;;;;;23.33;16.97;;;9.00;89.60;;;;;;5006899;28;20254;-69
2022/11/08 03:17:57;;;;;;;26.43;16.43;;;9.00;89.50;;;;;;5008510;28;20196;-69
2022/11/08 03:20:24;;;;;;;20.23;15.97;;;9.00;89.30;;;;;;5012484;28;20204;-69
2022/11/08 03:23:00;;;;;;;25.03;16.40;;;9.00;89.30;;;;;;5009781;28;20537;-70
2022/11/08 03:25:27;;;;;;;20.70;16.40;;;9.00;89.30;;;;;;5004685;28;20284;-70
2022/11/08 03:27:54;;;;;;;26.10;16.67;;;9.00;89.30;;;;;;5009927;28;20209;-69
2022/11/08 03:30:21;;;;;;;24.20;16.20;;;9.00;89.20;;;;;;5008369;28;20626;-69
2022/11/08 03:32:51;;;;;;;24.17;16.30;;;9.00;89.10;;;;;;5006354;28;20196;-69
2022/11/08 03:35:19;;;;;;;19.50;14.87;;;9.00;89.10;;;;;;5009178;28;20217;-70
2022/11/08 03:37:52;;;;;;;21.70;16.73;;;8.90;89.10;;;;;;5005887;28;20208;-69
2022/11/08 03:40:20;;;;;;;25.50;16.97;;;8.90;89.10;;;;;;5008097;28;20212;-70
2022/11/08 03:42:47;;;;;;;18.77;15.40;;;8.90;89.10;;;;;;5009763;28;20684;-69
2022/11/08 03:45:15;;;;;;;24.57;15.63;;;8.90;89.40;;;;;;5007960;28;20618;-69
2022/11/08 03:47:43;;;;;;;24.63;15.57;;;8.90;89.30;;;;;;5008196;28;20228;-70
2022/11/08 03:50:12;;;;;;;19.83;14.97;;;8.80;89.30;;;;;;5010314;28;20242;-70
2022/11/08 03:52:44;;;;;;;23.40;14.97;;;8.80;89.40;;;;;;5009770;28;20216;-70
2022/11/08 03:55:12;;;;;;;21.43;14.43;;;8.80;89.40;;;;;;5006758;28;20211;-70
2022/11/08 03:57:40;;;;;;;23.10;15.23;;;8.80;89.30;;;;;;5008053;28;20197;-70
2022/11/08 04:00:08;;;;;;;20.73;14.33;;;8.80;89.20;;;;;;5005054;28;20262;-70
2022/11/08 04:02:38;;;;;;;21.60;15.57;;;8.80;89.20;;;;;;5007039;28;20267;-70
2022/11/08 04:05:08;;;;;;;21.77;14.83;;;8.80;89.30;;;;;;5007631;28;20219;-70
2022/11/08 04:07:35;;;;;;;23.87;16.43;;;8.80;89.30;;;;;;5006067;28;20662;-70
2022/11/08 04:10:07;;;;;;;22.57;14.23;;;8.70;89.30;;;;;;5004181;28;20208;-70
2022/11/08 04:15:24;;;;;;;22.00;14.90;;;8.80;89.40;;;;;;5004611;28;20271;-70
2022/11/08 04:23:26;;;;;;;20.23;13.90;;;8.80;89.40;;;;;;5001948;28;20215;-70
2022/11/08 04:25:56;;;;;;;20.23;14.07;;;8.80;89.40;;;;;;5006843;28;20239;-70
2022/11/08 04:28:28;;;;;;;21.70;14.23;;;8.80;89.30;;;;;;5007291;28;20287;-70
2022/11/08 04:30:58;;;;;;;20.03;14.07;;;8.80;89.30;;;;;;5013140;28;20215;-69
2022/11/08 04:33:25;;;;;;;21.37;13.77;;;8.70;89.40;;;;;;5001877;28;20323;-70
2022/11/08 04:35:53;;;;;;;21.50;15.13;;;8.70;89.40;;;;;;5003109;28;20224;-69
2022/11/08 04:38:20;;;;;;;19.00;13.30;;;8.70;89.50;;;;;;5004639;28;20209;-69
2022/11/08 04:40:47;;;;;;;19.60;13.90;;;8.70;89.50;;;;;;5004660;28;20284;-69
2022/11/08 04:43:15;;;;;;;20.60;15.30;;;8.70;89.40;;;;;;5004828;28;20707;-69
2022/11/08 04:45:41;;;;;;;18.97;14.43;;;8.70;89.40;;;;;;5012672;28;20307;-69
2022/11/08 04:48:08;;;;;;;26.47;14.47;;;8.70;89.40;;;;;;5005768;28;20267;-70
2022/11/08 04:50:35;;;;;;;16.97;12.40;;;8.70;89.50;;;;;;5006762;28;20234;-69
2022/11/08 04:53:03;;;;;;;16.73;12.60;;;8.70;89.50;;;;;;5002010;28;20271;-70
2022/11/08 04:55:30;;;;;;;23.50;14.47;;;8.60;89.40;;;;;;5001784;28;20227;-69
2022/11/08 04:57:58;;;;;;;19.83;13.63;;;8.60;89.50;;;;;;5006895;28;20537;-69
2022/11/08 05:00:25;;;;;;;21.83;12.30;;;8.60;89.40;;;;;;5003002;28;20208;-70
2022/11/08 05:02:52;;;;;;;18.97;13.30;;;8.60;89.60;;;;;;5002336;28;20208;-70
2022/11/08 05:05:20;;;;;;;18.60;13.07;;;8.60;89.70;;;;;;5000498;28;20291;-70
2022/11/08 05:07:47;;;;;;;22.03;13.93;;;8.60;89.80;;;;;;5004920;28;20219;-70
2022/11/08 05:10:14;;;;;;;19.03;12.90;;;8.60;89.80;;;;;;5002252;28;20275;-70
2022/11/08 05:12:41;;;;;;;17.97;13.53;;;8.60;89.80;;;;;;5001931;28;20205;-70
2022/11/08 05:15:08;;;;;;;15.97;12.80;;;8.60;89.80;;;;;;4998969;28;20221;-70
2022/11/08 05:17:36;;;;;;;16.97;12.90;;;8.60;89.80;;;;;;5005804;28;20265;-70
2022/11/08 05:25:39;;;;;;;18.13;12.73;;;8.50;90.10;;;;;;5002004;28;20290;-69
2022/11/08 05:28:06;;;;;;;19.17;13.30;;;8.50;89.80;;;;;;5002760;28;20638;-69
2022/11/08 05:30:33;;;;;;;24.03;13.93;;;8.50;89.80;;;;;;5004536;28;20204;-70
2022/11/08 05:33:00;;;;;;;16.57;12.50;;;8.50;89.90;;;;;;5001273;28;20265;-70
2022/11/08 05:35:27;;;;;;;20.80;14.40;;;8.50;90.00;;;;;;5005342;28;20215;-70
2022/11/08 05:37:54;;;;;;;17.23;13.53;;;8.50;90.00;;;;;;5005465;28;20210;-70
2022/11/08 05:40:21;;;;;;;20.57;14.37;;;8.50;90.00;;;;;;5004510;28;20199;-70
2022/11/08 05:42:48;;;;;;;21.00;13.70;;;8.60;90.00;;;;;;5000394;28;20205;-70
2022/11/08 05:45:15;;;;;;;19.67;13.20;;;8.60;90.00;;;;;;5031973;28;20239;-70
2022/11/08 05:47:45;;;;;;;21.33;13.03;;;8.60;90.00;;;;;;4999962;28;20211;-70
2022/11/08 05:50:13;;;;;;;18.57;13.17;;;8.60;90.00;;;;;;5004426;28;20530;-69
2022/11/08 05:52:45;;;;;;;18.03;12.30;;;8.60;90.00;;;;;;5016762;28;20231;-69
2022/11/08 05:55:12;;;;;;;18.37;12.17;;;8.60;90.00;;;;;;5004735;28;20246;-70
2022/11/08 05:57:42;;;;;;;19.73;12.50;;;8.60;90.00;;;;;;5003118;28;20231;-70
2022/11/08 06:00:11;;;;;;;16.17;11.77;;;8.60;90.00;;;;;;5005741;28;20564;-69
2022/11/08 06:02:38;;;;;;;21.43;13.27;;;8.60;90.00;;;;;;5002401;28;20630;-70
2022/11/08 06:05:07;;;;;;;18.13;11.90;;;8.60;89.90;;;;;;5001082;28;20192;-70
2022/11/08 06:07:35;;;;;;;16.80;12.13;;;8.60;89.80;;;;;;5012798;28;20205;-70
2022/11/08 06:10:03;;;;;;;16.87;12.53;;;8.60;89.70;;;;;;4999273;28;20212;-70
2022/11/08 06:12:30;;;;;;;18.27;12.07;;;8.60;89.70;;;;;;5004538;28;20211;-70
2022/11/08 06:14:57;;;;;;;20.37;13.40;;;8.60;89.80;;;;;;5002456;28;20696;-70
2022/11/08 06:17:24;;;;;;;19.03;12.23;;;8.60;89.90;;;;;;5002626;28;20216;-70
2022/11/08 06:19:55;;;;;;;17.97;12.50;;;8.60;90.00;;;;;;5002080;28;20200;-70
2022/11/08 06:22:22;;;;;;;16.23;12.33;;;8.60;90.00;;;;;;5002813;28;20201;-70
2022/11/08 06:24:49;;;;;;;20.93;11.77;;;8.70;90.00;;;;;;5002705;28;20212;-70
2022/11/08 06:27:16;;;;;;;18.47;12.33;;;8.70;90.00;;;;;;5002305;28;20210;-70
2022/11/08 06:29:43;;;;;;;19.53;12.13;;;8.70;90.00;;;;;;4999714;28;20203;-70
2022/11/08 06:32:10;;;;;;;18.47;12.33;;;8.80;90.00;;;;;;4999500;28;20204;-70
2022/11/08 06:34:37;;;;;;;18.47;11.63;;;8.80;90.00;;;;;;5000598;28;20275;-70
2022/11/08 06:37:04;;;;;;;14.80;10.87;;;8.90;90.00;;;;;;5001950;28;20298;-70
2022/11/08 06:39:31;;;;;;;14.73;11.00;;;8.90;90.00;;;;;;5000605;28;20208;-70
2022/11/08 06:41:59;;;;;;;17.47;11.83;;;8.90;89.90;;;;;;5001455;28;20267;-70
2022/11/08 06:44:26;;;;;;;16.23;11.87;;;8.90;89.90;;;;;;4997021;28;20200;-70
2022/11/08 06:46:56;;;;;;;17.13;12.07;;;9.00;90.20;;;;;;5007366;28;20684;-70
2022/11/08 06:49:23;;;;;;;15.40;12.00;;;9.00;90.00;;;;;;5001804;28;20266;-70
2022/11/08 06:51:51;;;;;;;18.20;11.43;;;9.10;89.80;;;;;;4999373;28;20601;-70
2022/11/08 06:54:19;;;;;;;17.63;10.77;;;9.20;89.80;;;;;;5000994;28;20204;-70
2022/11/08 06:56:54;;;;;;;15.90;11.90;;;9.40;89.90;;;;;;4999855;28;20213;-70
2022/11/08 06:59:22;;;;;;;16.43;11.67;;;9.70;88.80;;;;;;5005532;28;20228;-70
2022/11/08 07:01:49;;;;;;;15.10;11.00;;;10.10;87.70;;;;;;5001345;28;20197;-69
2022/11/08 07:04:16;;;;;;;16.40;11.80;;;10.40;86.40;;;;;;4998889;28;20252;-70
2022/11/08 07:06:43;;;;;;;16.13;11.50;;;10.70;85.20;;;;;;5001726;28;20530;-70
2022/11/08 07:09:10;;;;;;;16.47;12.40;;;11.00;83.80;;;;;;4999014;28;20276;-69
2022/11/08 07:11:37;;;;;;;16.20;10.93;;;11.30;82.80;;;;;;4998373;28;20607;-69
2022/11/08 07:14:04;;;;;;;15.43;10.83;;;11.30;82.30;;;;;;5001378;28;20210;-69
2022/11/08 07:16:31;;;;;;;17.27;11.40;;;11.20;82.50;;;;;;4997631;28;20222;-70
2022/11/08 07:18:58;;;;;;;16.87;11.83;;;11.10;83.30;;;;;;5002167;28;20196;-70
2022/11/08 07:21:25;;;;;;;14.43;10.77;;;11.20;83.60;;;;;;5002285;28;20202;-70
2022/11/08 07:23:52;;;;;;;16.90;11.67;;;11.40;83.40;;;;;;4999935;28;20551;-70
2022/11/08 07:26:19;;;;;;;19.27;11.83;;;11.50;83.10;;;;;;4997498;28;20277;-70
2022/11/08 07:28:46;;;;;;;16.87;11.80;;;11.70;82.90;;;;;;5004517;28;20214;-70
2022/11/08 07:31:15;;;;;;;16.40;11.50;;;11.80;82.50;;;;;;5001741;28;20222;-70
2022/11/08 07:33:42;;;;;;;15.50;12.13;;;11.90;82.30;;;;;;5000879;28;20202;-70
2022/11/08 07:36:09;;;;;;;15.33;12.07;;;12.00;82.10;;;;;;5005427;28;21604;-70
2022/11/08 07:38:36;;;;;;;20.57;13.43;;;12.10;82.10;;;;;;5001027;28;20203;-70
2022/11/08 07:41:03;;;;;;;17.97;13.70;;;12.10;82.10;;;;;;5005136;28;20211;-70
2022/11/08 07:43:30;;;;;;;21.43;14.43;;;12.20;82.30;;;;;;5013906;28;20227;-70
2022/11/08 07:46:08;;;;;;;19.27;14.47;;;12.20;82.30;;;;;;5008903;28;20213;-69
2022/11/08 07:48:35;;;;;;;25.87;15.57;;;12.30;82.40;;;;;;5000787;28;20200;-69
2022/11/08 07:51:02;;;;;;;21.70;15.70;;;12.30;82.40;;;;;;5001413;28;20269;-69
2022/11/08 07:53:29;;;;;;;23.63;16.73;;;12.30;82.40;;;;;;5003384;28;20289;-69
2022/11/08 07:55:57;;;;;;;26.10;16.93;;;12.40;82.40;;;;;;5001452;28;20217;-69
2022/11/08 07:58:24;;;;;;;22.57;17.13;;;12.50;82.30;;;;;;5007275;28;20204;-69
2022/11/08 08:00:51;;;;;;;25.60;18.30;;;12.60;82.20;;;;;;5004261;28;20278;-69
2022/11/08 08:03:18;;;;;;;26.97;18.07;;;12.60;81.80;;;;;;5005307;28;20231;-69
2022/11/08 08:05:51;;;;;;;22.27;17.17;;;12.70;81.90;;;;;;5003697;28;20207;-69
2022/11/08 08:08:26;;;;;;;27.73;18.30;;;12.80;81.10;;;;;;5003948;28;20225;-69
2022/11/08 08:10:59;;;;;;;26.33;19.70;;;12.90;81.00;;;;;;5004419;28;20203;-69
2022/11/08 08:13:26;;;;;;;25.47;20.83;;;13.00;80.80;;;;;;5004767;28;20209;-69
2022/11/08 08:15:57;;;;;;;26.57;20.27;;;13.10;80.60;;;;;;5005083;28;20263;-69
2022/11/08 08:18:24;;;;;;;28.77;20.13;;;13.20;80.40;;;;;;5004566;28;20216;-69
2022/11/08 08:20:51;;;;;;;31.97;20.77;;;13.30;80.30;;;;;;5004845;28;20690;-69
2022/11/08 08:23:18;;;;;;;26.17;20.10;;;13.50;80.00;;;;;;5008905;28;20259;-69
2022/11/08 08:25:46;;;;;;;29.93;21.00;;;13.60;79.40;;;;;;5001250;28;20243;-69
2022/11/08 08:28:13;;;;;;;28.23;20.73;;;13.70;79.20;;;;;;5006509;28;20208;-69
2022/11/08 08:30:40;;;;;;;25.83;20.97;;;13.80;79.10;;;;;;5004039;28;20539;-69
2022/11/08 08:33:12;;;;;;;25.00;19.20;;;13.90;79.20;;;;;;5005721;28;20227;-68
2022/11/08 08:35:56;;;;;;;23.77;19.30;;;14.10;79.20;;;;;;5005743;28;20708;-69
2022/11/08 08:38:23;;;;;;;26.60;20.13;;;14.30;79.10;;;;;;5003589;28;20257;-69
2022/11/08 08:40:50;;;;;;;25.83;19.73;;;14.40;78.80;;;;;;5003194;28;20193;-69
2022/11/08 08:43:18;;;;;;;25.10;20.40;;;14.60;78.10;;;;;;5003168;28;20527;-68
2022/11/08 08:45:45;;;;;;;28.47;20.20;;;14.70;78.00;;;;;;5005859;28;20220;-69
2022/11/08 08:48:12;;;;;;;26.47;20.63;;;14.80;77.80;;;;;;5002001;28;20273;-69
2022/11/08 08:50:40;;;;;;;25.73;20.27;;;15.00;77.60;;;;;;5002799;28;20204;-68
2022/11/08 08:53:07;;;;;;;25.43;19.70;;;15.10;77.40;;;;;;5006118;28;20210;-68
2022/11/08 08:55:34;;;;;;;27.90;20.43;;;15.10;76.70;;;;;;5002741;28;20644;-68
2022/11/08 08:58:01;;;;;;;30.50;20.93;;;15.20;76.70;;;;;;5006222;28;20259;-68
2022/11/08 09:00:28;;;;;;;28.13;22.23;;;15.30;76.70;;;;;;5001578;28;20648;-68
2022/11/08 09:03:15;;;;;;;30.77;23.63;;;15.40;76.70;;;;;;5000888;28;20678;-69
2022/11/08 09:05:45;;;;;;;29.50;21.80;;;15.50;76.70;;;;;;5000734;28;20205;-68
2022/11/08 09:08:13;;;;;;;29.37;24.13;;;15.60;76.50;;;;;;5000800;28;20207;-69
2022/11/08 09:10:40;;;;;;;29.37;23.17;;;15.70;76.50;;;;;;5002799;28;20327;-69
2022/11/08 09:13:08;;;;;;;30.13;23.63;;;15.80;76.40;;;;;;5003187;28;20207;-69
2022/11/08 09:15:35;;;;;;;34.13;24.90;;;15.80;76.10;;;;;;5005760;28;20273;-69
2022/11/08 09:18:02;;;;;;;31.57;25.10;;;15.90;75.90;;;;;;5007606;28;20278;-69
2022/11/08 09:20:29;;;;;;;32.83;24.77;;;15.90;76.00;;;;;;5001101;28;20214;-69
2022/11/08 09:23:01;;;;;;;33.53;25.97;;;15.90;76.00;;;;;;5003164;28;20257;-68
2022/11/08 09:25:28;;;;;;;33.10;26.43;;;15.90;75.80;;;;;;5000322;28;20268;-69
2022/11/08 09:27:55;;;;;;;29.83;24.10;;;15.90;75.70;;;;;;5006056;28;20204;-69
2022/11/08 09:30:22;;;;;;;36.53;27.10;;;15.90;75.90;;;;;;5001873;28;20208;-68
2022/11/08 09:32:52;;;;;;;34.17;27.17;;;16.00;76.00;;;;;;5003711;28;20232;-68
2022/11/08 09:35:28;;;;;;;35.43;27.10;;;16.00;76.10;;;;;;5004583;28;20247;-68
2022/11/08 09:37:56;;;;;;;32.23;25.97;;;16.10;76.20;;;;;;4998326;28;20232;-69
2022/11/08 09:40:45;;;;;;;34.27;26.70;;;16.20;76.10;;;;;;4998804;28;20208;-68
2022/11/08 09:43:21;;;;;;;37.13;28.00;;;16.30;75.90;;;;;;5033445;28;20696;-68
2022/11/08 09:45:51;;;;;;;34.73;26.93;;;16.40;75.60;;;;;;5001928;28;20226;-68
2022/11/08 09:48:27;;;;;;;37.03;29.77;;;16.50;75.30;;;;;;5002516;28;20215;-69
2022/11/08 09:50:57;;;;;;;34.37;25.90;;;16.50;75.20;;;;;;5002774;28;20211;-69
2022/11/08 09:53:58;;;;;;;36.03;27.00;;;16.60;74.90;;;;;;5000770;28;20211;-68
2022/11/08 09:56:30;;;;;;;36.23;27.13;;;16.70;74.60;;;;;;5002750;28;20232;-68
2022/11/08 09:59:17;;;;;;;34.43;25.90;;;16.80;74.40;;;;;;5003969;28;20254;-68
2022/11/08 10:01:44;;;;;;;35.87;26.13;;;16.90;73.80;;;;;;4999052;28;20407;-68
2022/11/08 10:04:15;;;;;;;38.77;27.67;;;17.10;73.20;;;;;;4997337;28;20200;-68
2022/11/08 10:06:55;;;;;;;33.33;25.27;;;17.20;72.60;;;;;;4997297;28;20637;-68
2022/11/08 10:10:03;;;;;;;33.10;25.70;;;17.30;72.00;;;;;;5006420;28;20231;-68
2022/11/08 10:12:48;;;;;;;36.23;27.53;;;17.40;71.50;;;;;;5001792;28;20282;-68
2022/11/08 10:15:32;;;;;;;36.47;25.97;;;17.50;71.20;;;;;;5002970;28;20594;-68
2022/11/08 10:18:02;;;;;;;38.63;25.83;;;17.60;71.10;;;;;;5001378;28;20634;-68
2022/11/08 10:20:52;;;;;;;38.03;26.33;;;17.60;70.80;;;;;;5005545;28;20261;-68
2022/11/08 10:23:35;;;;;;;38.63;27.17;;;17.70;70.10;;;;;;5007063;28;20216;-68
2022/11/08 10:26:10;;;;;;;44.00;28.07;;;17.70;69.50;;;;;;5001719;28;20240;-68
2022/11/08 10:28:43;;;;;;;39.40;28.33;;;17.80;68.50;;;;;;5000002;28;20598;-68
2022/11/08 10:31:12;;;;;;;41.60;28.13;;;17.80;68.40;;;;;;5004169;28;20193;-68
2022/11/08 10:33:57;;;;;;;40.37;29.17;;;17.80;67.60;;;;;;4999121;28;20213;-68
2022/11/08 10:36:37;;;;;;;38.83;28.33;;;17.80;66.80;;;;;;5003187;28;20234;-68
2022/11/08 10:39:20;;;;;;;38.00;28.43;;;17.70;66.60;;;;;;5001185;28;20200;-68
2022/11/08 10:41:58;;;;;;;43.03;31.43;;;17.70;66.80;;;;;;5000673;28;20200;-68
2022/11/08 10:44:27;;;;;;;45.97;30.20;;;17.60;66.90;;;;;;5002635;28;20210;-68
2022/11/08 10:47:00;;;;;;;45.23;29.57;;;17.60;66.50;;;;;;5004031;28;20204;-67
2022/11/08 10:49:39;;;;;;;46.87;29.93;;;17.50;67.10;;;;;;5002714;28;20212;-68
2022/11/08 10:52:31;;;;;;;43.10;31.90;;;17.40;67.60;;;;;;5000384;28;20197;-68
2022/11/08 10:55:00;;;;;;;45.33;31.50;;;17.40;67.80;;;;;;5002412;28;20627;-67
2022/11/08 10:57:27;;;;;;;46.80;32.07;;;17.40;68.00;;;;;;5000092;28;20286;-67
2022/11/08 10:59:55;;;;;;;51.73;33.97;;;17.40;67.90;;;;;;5002432;28;20205;-67
2022/11/08 11:02:24;;;;;;;47.37;34.43;;;17.40;67.30;;;;;;5001664;28;20200;-68
2022/11/08 11:04:53;;;;;;;44.50;31.27;;;17.40;67.60;;;;;;5002755;28;20637;-67
2022/11/08 11:07:42;;;;;;;43.63;33.27;;;17.50;67.50;;;;;;5003305;28;20200;-68
2022/11/08 11:10:21;;;;;;;45.20;32.23;;;17.60;67.30;;;;;;5001051;28;20200;-68
2022/11/08 11:12:50;;;;;;;41.23;31.27;;;17.70;67.10;;;;;;5018964;28;20208;-68
2022/11/08 11:15:17;;;;;;;41.90;31.80;;;17.70;66.90;;;;;;5004782;28;20208;-67
2022/11/08 11:17:45;;;;;;;43.57;31.30;;;17.80;67.00;;;;;;5003477;28;20530;-67
2022/11/08 11:20:21;;;;;;;43.00;33.17;;;17.90;66.60;;;;;;5001073;28;20256;-67
2022/11/08 11:22:50;;;;;;;45.57;33.63;;;18.00;66.10;;;;;;5003069;28;20196;-67
2022/11/08 11:25:22;;;;;;;44.83;34.07;;;18.10;65.90;;;;;;5005735;28;20310;-67
2022/11/08 11:28:12;;;;;;;43.07;32.43;;;18.20;65.30;;;;;;5005593;28;20196;-67
2022/11/08 11:30:41;;;;;;;46.33;32.77;;;18.30;65.00;;;;;;5004843;28;20257;-67
2022/11/08 11:33:07;;;;;;;44.30;34.00;;;18.30;64.70;;;;;;5002578;28;20217;-67
2022/11/08 11:35:48;;;;;;;47.03;36.33;;;18.30;64.60;;;;;;5002712;28;20219;-66
2022/11/08 11:39:07;;;;;;;47.57;36.33;;;18.30;64.30;;;;;;5007116;28;20217;-66
2022/11/08 11:42:07;;;;;;;48.37;37.00;;;18.30;64.10;;;;;;5005750;28;20230;-67
2022/11/08 11:45:15;;;;;;;53.47;37.83;;;18.20;63.80;;;;;;5004941;28;20277;-66
2022/11/08 11:47:54;;;;;;;49.20;38.03;;;18.20;63.50;;;;;;5006327;28;20264;-67
2022/11/08 11:50:38;;;;;;;49.57;36.03;;;18.20;63.10;;;;;;5005448;28;20202;-67
2022/11/08 11:53:23;;;;;;;45.77;34.63;;;18.30;63.50;;;;;;5006012;28;20614;-66
2022/11/08 11:56:08;;;;;;;44.93;34.43;;;18.30;64.10;;;;;;5004294;28;20206;-66
2022/11/08 11:59:07;;;;;;;44.27;35.10;;;18.40;63.20;;;;;;5005154;28;20237;-66
2022/11/08 12:01:46;;;;;;;51.20;35.77;;;18.50;62.30;;;;;;5006621;28;20204;-66
2022/11/08 12:04:25;;;;;;;44.63;34.67;;;18.50;62.10;;;;;;5004847;28;20203;-66
2022/11/08 12:07:14;;;;;;;45.97;35.97;;;18.60;61.80;;;;;;5003733;28;20215;-66
2022/11/08 12:09:55;;;;;;;46.67;35.37;;;18.70;61.60;;;;;;5011297;28;20233;-66
2022/11/08 12:12:51;;;;;;;53.43;36.37;;;18.80;61.60;;;;;;5001841;28;20201;-66
2022/11/08 12:15:24;;;;;;;46.57;34.90;;;19.00;61.40;;;;;;5008134;28;20684;-67
2022/11/08 12:17:51;;;;;;;43.57;33.73;;;19.10;60.30;;;;;;5003980;28;20219;-66
2022/11/08 12:20:21;;;;;;;42.50;32.97;;;19.10;60.20;;;;;;5003737;28;20210;-66
2022/11/08 12:23:14;;;;;;;39.10;30.90;;;19.10;60.30;;;;;;5006766;28;20190;-66
2022/11/08 12:25:44;;;;;;;42.63;32.67;;;19.10;60.20;;;;;;5002581;28;20599;-66
2022/11/08 12:28:41;;;;;;;44.77;31.63;;;19.10;59.60;;;;;;5005183;28;20275;-66
2022/11/08 12:31:27;;;;;;;53.47;33.60;;;19.10;59.40;;;;;;5006804;28;20238;-66
2022/11/08 12:34:09;;;;;;;46.50;33.27;;;19.00;59.20;;;;;;5000925;28;20202;-66
2022/11/08 12:36:51;;;;;;;50.07;31.73;;;18.90;59.70;;;;;;5005668;28;20260;-66
2022/11/08 12:39:27;;;;;;;42.10;29.63;;;18.90;60.20;;;;;;5004313;28;20189;-66
2022/11/08 12:42:09;;;;;;;40.77;30.83;;;18.90;60.60;;;;;;5000060;28;20202;-66
2022/11/08 12:45:17;;;;;;;40.57;31.10;;;18.90;60.80;;;;;;5003831;28;20205;-66
2022/11/08 12:47:55;;;;;;;44.60;32.70;;;18.90;60.60;;;;;;5006336;28;20217;-65
2022/11/08 12:50:34;;;;;;;41.13;31.03;;;18.90;60.00;;;;;;5001943;28;20485;-66
2022/11/08 12:53:01;;;;;;;42.53;31.67;;;18.90;59.80;;;;;;5002034;28;20288;-66
2022/11/08 12:55:34;;;;;;;45.03;33.63;;;18.90;59.90;;;;;;5002793;28;20202;-66
2022/11/08 12:58:20;;;;;;;43.73;32.50;;;18.80;60.30;;;;;;5005020;28;20221;-66
2022/11/08 13:00:51;;;;;;;41.97;31.87;;;18.80;61.40;;;;;;5005073;28;20202;-66
2022/11/08 13:04:04;;;;;;;43.10;30.73;;;18.80;61.00;;;;;;5034172;28;20237;-66
2022/11/08 13:06:47;;;;;;;40.27;31.27;;;18.90;61.00;;;;;;5002724;28;20202;-66
2022/11/08 13:09:45;;;;;;;44.33;31.60;;;18.90;60.90;;;;;;5005924;28;20207;-67
2022/11/08 13:12:43;;;;;;;42.03;30.97;;;18.90;60.80;;;;;;5003107;28;20205;-66
2022/11/08 13:15:16;;;;;;;41.30;29.53;;;19.00;61.30;;;;;;5010445;28;20205;-67
2022/11/08 13:18:05;;;;;;;38.60;30.03;;;18.90;60.70;;;;;;5002146;28;20229;-67
2022/11/08 13:20:44;;;;;;;32.00;27.17;;;18.90;60.60;;;;;;5004833;28;20206;-66
2022/11/08 13:23:23;;;;;;;43.63;30.73;;;18.80;60.80;;;;;;5006801;28;20552;-66
2022/11/08 13:25:51;;;;;;;42.73;32.43;;;18.80;61.00;;;;;;5002539;28;20646;-65